TimePST,TemperatureF,Dew PointF,Humidity,Sea Level PressureIn,VisibilityMPH,Wind Direction,Wind SpeedMPH,Gust SpeedMPH,PrecipitationIn,Events,Conditions,WindDirDegrees,DateUTC
12:15 AM,26.6,23.0,86,30.09,10.0,North,9.2,-,N/A,,Clear,350,2013-03-09 08:15:00
12:35 AM,28.4,23.0,80,30.09,10.0,North,10.4,-,N/A,,Clear,10,2013-03-09 08:35:00
12:55 AM,28.4,21.2,74,30.10,10.0,NW,4.6,-,N/A,,Clear,320,2013-03-09 08:55:00
1:15 AM,26.6,21.2,80,30.11,10.0,North,5.8,-,N/A,,Clear,350,2013-03-09 09:15:00
1:35 AM,26.6,21.2,80,30.11,10.0,North,5.8,-,N/A,,Clear,10,2013-03-09 09:35:00
1:55 AM,24.8,21.2,86,30.12,10.0,North,6.9,-,N/A,,Clear,10,2013-03-09 09:55:00
2:15 AM,24.8,19.4,80,30.12,10.0,North,5.8,-,N/A,,Clear,350,2013-03-09 10:15:00
2:35 AM,24.8,21.2,86,30.12,10.0,North,6.9,-,N/A,,Clear,350,2013-03-09 10:35:00
2:55 AM,21.2,19.4,93,30.13,10.0,NNW,8.1,-,N/A,,Clear,340,2013-03-09 10:55:00
3:15 AM,23.0,21.2,93,30.13,10.0,North,6.9,-,N/A,,Clear,10,2013-03-09 11:15:00
3:35 AM,24.8,21.2,86,30.13,10.0,NNE,10.4,-,N/A,,Clear,20,2013-03-09 11:35:00
3:55 AM,26.6,21.2,80,30.15,10.0,North,9.2,-,N/A,,Clear,10,2013-03-09 11:55:00
4:15 AM,24.8,21.2,86,30.15,10.0,North,6.9,-,N/A,,Clear,350,2013-03-09 12:15:00
4:35 AM,23.0,19.4,86,30.16,10.0,NNW,6.9,-,N/A,,Clear,330,2013-03-09 12:35:00
4:55 AM,23.0,21.2,93,30.16,10.0,NW,8.1,-,N/A,,Clear,320,2013-03-09 12:55:00
5:15 AM,23.0,21.2,93,30.18,10.0,North,9.2,-,N/A,,Clear,350,2013-03-09 13:15:00
5:35 AM,21.2,21.2,100,30.19,10.0,North,6.9,-,N/A,,Clear,360,2013-03-09 13:35:00
5:55 AM,21.2,17.6,86,30.20,10.0,North,8.1,-,N/A,,Clear,350,2013-03-09 13:55:00
6:15 AM,21.2,19.4,93,30.21,10.0,NNW,9.2,-,N/A,,Clear,340,2013-03-09 14:15:00
6:35 AM,21.2,19.4,93,30.22,10.0,NNW,9.2,-,N/A,,Clear,330,2013-03-09 14:35:00
6:55 AM,23.0,21.2,93,30.23,10.0,NNW,10.4,-,N/A,,Clear,340,2013-03-09 14:55:00
7:15 AM,26.6,23.0,86,30.24,10.0,North,9.2,-,N/A,,Clear,350,2013-03-09 15:15:00
7:35 AM,28.4,23.0,80,30.26,10.0,North,5.8,-,N/A,,Clear,360,2013-03-09 15:35:00
7:55 AM,30.2,23.0,75,30.27,10.0,NNE,6.9,-,N/A,,Clear,20,2013-03-09 15:55:00
8:15 AM,32.0,21.2,64,30.28,10.0,North,15.0,-,N/A,,Clear,10,2013-03-09 16:15:00
8:35 AM,33.8,19.4,56,30.28,10.0,North,15.0,19.6,N/A,,Clear,10,2013-03-09 16:35:00
8:55 AM,33.8,19.4,56,30.28,10.0,North,16.1,-,N/A,,Clear,10,2013-03-09 16:55:00
9:15 AM,35.6,19.4,52,30.29,10.0,North,17.3,-,N/A,,Clear,10,2013-03-09 17:15:00
9:35 AM,37.4,21.2,52,30.29,10.0,North,17.3,20.7,N/A,,Clear,10,2013-03-09 17:35:00
9:55 AM,37.4,19.4,48,30.29,10.0,North,16.1,-,N/A,,Clear,10,2013-03-09 17:55:00
10:15 AM,37.4,19.4,48,30.30,10.0,North,12.7,-,N/A,,Clear,10,2013-03-09 18:15:00
10:35 AM,39.2,21.2,49,30.30,10.0,North,13.8,18.4,N/A,,Clear,10,2013-03-09 18:35:00
10:55 AM,39.2,19.4,45,30.31,10.0,North,13.8,17.3,N/A,,Clear,360,2013-03-09 18:55:00
11:15 AM,41.0,19.4,42,30.31,10.0,North,10.4,18.4,N/A,,Clear,10,2013-03-09 19:15:00
11:35 AM,42.8,19.4,39,30.31,10.0,North,12.7,19.6,N/A,,Clear,10,2013-03-09 19:35:00
11:55 AM,42.8,17.6,36,30.31,10.0,North,12.7,-,N/A,,Clear,360,2013-03-09 19:55:00
12:15 PM,44.6,15.8,31,30.31,10.0,NNE,10.4,-,N/A,,Clear,20,2013-03-09 20:15:00
12:35 PM,44.6,14.0,29,30.31,10.0,North,8.1,-,N/A,,Clear,350,2013-03-09 20:35:00
12:55 PM,46.4,12.2,25,30.31,10.0,NW,3.5,-,N/A,,Clear,310,2013-03-09 20:55:00
1:15 PM,48.2,12.2,24,30.31,10.0,NW,5.8,-,N/A,,Clear,320,2013-03-09 21:15:00
1:35 PM,46.4,15.8,29,30.32,10.0,NNW,6.9,-,N/A,,Clear,330,2013-03-09 21:35:00
1:55 PM,48.2,17.6,30,30.32,10.0,North,10.4,-,N/A,,Clear,350,2013-03-09 21:55:00
2:15 PM,48.2,12.2,24,30.31,10.0,North,11.5,-,N/A,,Clear,350,2013-03-09 22:15:00
2:35 PM,48.2,12.2,24,30.31,10.0,North,11.5,17.3,N/A,,Clear,360,2013-03-09 22:35:00
2:55 PM,48.2,12.2,24,30.32,10.0,NNE,8.1,-,N/A,,Clear,30,2013-03-09 22:55:00
3:15 PM,51.8,14.0,22,30.32,10.0,NNW,10.4,-,N/A,,Clear,340,2013-03-09 23:15:00
3:35 PM,50.0,14.0,24,30.33,10.0,North,11.5,-,N/A,,Clear,360,2013-03-09 23:35:00
3:55 PM,50.0,12.2,22,30.33,10.0,North,13.8,-,N/A,,Clear,360,2013-03-09 23:55:00
4:15 PM,48.2,14.0,25,30.33,10.0,North,13.8,19.6,N/A,,Clear,10,2013-03-10 00:15:00
4:35 PM,48.2,14.0,25,30.33,10.0,North,11.5,-,N/A,,Clear,360,2013-03-10 00:35:00
4:55 PM,46.4,15.8,29,30.34,10.0,North,11.5,16.1,N/A,,Clear,10,2013-03-10 00:55:00
5:15 PM,46.4,17.6,32,30.34,10.0,North,11.5,-,N/A,,Clear,10,2013-03-10 01:15:00
5:35 PM,44.6,17.6,34,30.35,10.0,North,10.4,-,N/A,,Clear,360,2013-03-10 01:35:00
5:55 PM,41.0,17.6,39,30.36,10.0,North,9.2,-,N/A,,Clear,360,2013-03-10 01:55:00
6:15 PM,35.6,19.4,52,30.36,10.0,North,8.1,-,N/A,,Clear,10,2013-03-10 02:15:00
6:35 PM,33.8,21.2,60,30.37,10.0,North,8.1,-,N/A,,Clear,350,2013-03-10 02:35:00
6:55 PM,32.0,19.4,60,30.38,10.0,NNW,3.5,-,N/A,,Clear,330,2013-03-10 02:55:00
7:15 PM,32.0,19.4,60,30.38,10.0,NNW,6.9,-,N/A,,Clear,340,2013-03-10 03:15:00
7:35 PM,32.0,21.2,64,30.38,10.0,North,6.9,-,N/A,,Clear,360,2013-03-10 03:35:00
7:55 PM,28.4,19.4,69,30.39,10.0,NW,8.1,-,N/A,,Clear,320,2013-03-10 03:55:00
8:15 PM,26.6,21.2,80,30.39,10.0,NNW,8.1,-,N/A,,Clear,330,2013-03-10 04:15:00
8:35 PM,26.6,21.2,80,30.39,10.0,NNW,11.5,-,N/A,,Clear,330,2013-03-10 04:35:00
8:55 PM,26.6,21.2,80,30.40,10.0,North,8.1,-,N/A,,Clear,10,2013-03-10 04:55:00
9:15 PM,26.6,21.2,80,30.41,10.0,North,8.1,-,N/A,,Clear,360,2013-03-10 05:15:00
9:35 PM,26.6,21.2,80,30.40,10.0,NNW,9.2,-,N/A,,Clear,340,2013-03-10 05:35:00
9:55 PM,28.4,21.2,74,30.39,10.0,North,6.9,-,N/A,,Clear,360,2013-03-10 05:55:00
10:15 PM,26.6,19.4,74,30.41,10.0,WSW,4.6,-,N/A,,Clear,250,2013-03-10 06:15:00
10:35 PM,26.6,19.4,74,30.41,10.0,North,4.6,-,N/A,,Clear,360,2013-03-10 06:35:00
10:55 PM,24.8,19.4,80,30.41,10.0,North,8.1,-,N/A,,Clear,10,2013-03-10 06:55:00
11:15 PM,24.8,19.4,80,30.42,10.0,WNW,4.6,-,N/A,,Clear,290,2013-03-10 07:15:00
11:35 PM,24.8,19.4,80,30.43,10.0,NE,3.5,-,N/A,,Clear,40,2013-03-10 07:35:00
11:55 PM,23.0,19.4,86,30.43,10.0,NNE,6.9,-,N/A,,Clear,20,2013-03-10 07:55:00